sensor_id;sensor_type;location;lat;lon;timestamp;P1;durP1;ratioP1;P2;durP2;ratioP2
52188;SDS011;38162;45.926;13.608;2022-12-28T00:01:56;2.05;;;1.10;;
52188;SDS011;38162;45.926;13.608;2022-12-28T00:04:22;2.43;;;1.13;;
52188;SDS011;38162;45.926;13.608;2022-12-28T00:06:48;1.80;;;1.10;;
52188;SDS011;38162;45.926;13.608;2022-12-28T00:09:14;2.20;;;1.13;;
52188;SDS011;38162;45.926;13.608;2022-12-28T00:11:40;3.00;;;1.25;;
52188;SDS011;38162;45.926;13.608;2022-12-28T00:14:06;1.80;;;1.20;;
52188;SDS011;38162;45.926;13.608;2022-12-28T00:16:33;1.45;;;1.08;;
52188;SDS011;38162;45.926;13.608;2022-12-28T00:19:01;2.03;;;1.10;;
52188;SDS011;38162;45.926;13.608;2022-12-28T00:21:30;1.55;;;1.00;;
52188;SDS011;38162;45.926;13.608;2022-12-28T00:23:57;4.30;;;1.15;;
52188;SDS011;38162;45.926;13.608;2022-12-28T00:26:24;2.83;;;1.33;;
52188;SDS011;38162;45.926;13.608;2022-12-28T00:28:52;1.75;;;1.13;;
52188;SDS011;38162;45.926;13.608;2022-12-28T00:31:18;1.85;;;1.20;;
52188;SDS011;38162;45.926;13.608;2022-12-28T00:33:43;1.40;;;1.00;;
52188;SDS011;38162;45.926;13.608;2022-12-28T00:36:10;2.45;;;1.40;;
52188;SDS011;38162;45.926;13.608;2022-12-28T00:38:37;1.30;;;0.82;;
52188;SDS011;38162;45.926;13.608;2022-12-28T00:41:04;1.47;;;1.07;;
52188;SDS011;38162;45.926;13.608;2022-12-28T00:43:30;1.88;;;0.70;;
52188;SDS011;38162;45.926;13.608;2022-12-28T00:45:56;3.00;;;1.07;;
52188;SDS011;38162;45.926;13.608;2022-12-28T00:48:22;1.48;;;1.00;;
52188;SDS011;38162;45.926;13.608;2022-12-28T00:50:48;2.72;;;0.98;;
52188;SDS011;38162;45.926;13.608;2022-12-28T00:53:14;3.10;;;1.02;;
52188;SDS011;38162;45.926;13.608;2022-12-28T00:55:41;1.35;;;0.80;;
52188;SDS011;38162;45.926;13.608;2022-12-28T00:58:07;0.77;;;0.63;;
52188;SDS011;38162;45.926;13.608;2022-12-28T01:00:33;1.37;;;0.73;;
52188;SDS011;38162;45.926;13.608;2022-12-28T01:03:00;1.35;;;0.85;;
52188;SDS011;38162;45.926;13.608;2022-12-28T01:05:26;1.35;;;0.90;;
52188;SDS011;38162;45.926;13.608;2022-12-28T01:07:52;2.03;;;1.00;;
52188;SDS011;38162;45.926;13.608;2022-12-28T01:10:18;2.03;;;0.73;;
52188;SDS011;38162;45.926;13.608;2022-12-28T01:12:44;1.37;;;0.90;;
52188;SDS011;38162;45.926;13.608;2022-12-28T01:15:11;1.43;;;0.93;;
52188;SDS011;38162;45.926;13.608;2022-12-28T01:17:58;1.77;;;0.90;;
52188;SDS011;38162;45.926;13.608;2022-12-28T01:37:45;2.77;;;1.00;;
52188;SDS011;38162;45.926;13.608;2022-12-28T01:48:12;1.60;;;0.90;;
52188;SDS011;38162;45.926;13.608;2022-12-28T01:50:24;1.83;;;0.73;;
52188;SDS011;38162;45.926;13.608;2022-12-28T01:52:56;1.50;;;0.90;;
52188;SDS011;38162;45.926;13.608;2022-12-28T01:55:30;3.13;;;0.83;;
52188;SDS011;38162;45.926;13.608;2022-12-28T01:58:00;1.90;;;1.08;;
52188;SDS011;38162;45.926;13.608;2022-12-28T02:00:30;1.20;;;0.80;;
52188;SDS011;38162;45.926;13.608;2022-12-28T02:02:57;3.17;;;1.00;;
52188;SDS011;38162;45.926;13.608;2022-12-28T02:05:33;1.53;;;0.90;;
52188;SDS011;38162;45.926;13.608;2022-12-28T02:10:32;1.63;;;0.73;;
52188;SDS011;38162;45.926;13.608;2022-12-28T02:12:59;2.20;;;0.90;;
52188;SDS011;38162;45.926;13.608;2022-12-28T02:15:27;1.53;;;1.00;;
52188;SDS011;38162;45.926;13.608;2022-12-28T02:17:53;1.93;;;0.93;;
52188;SDS011;38162;45.926;13.608;2022-12-28T02:20:19;2.27;;;1.17;;
52188;SDS011;38162;45.926;13.608;2022-12-28T02:31:01;5.80;;;0.87;;
52188;SDS011;38162;45.926;13.608;2022-12-28T02:33:37;1.93;;;0.97;;
52188;SDS011;38162;45.926;13.608;2022-12-28T02:36:21;1.50;;;0.90;;
52188;SDS011;38162;45.926;13.608;2022-12-28T02:38:56;1.23;;;0.70;;
52188;SDS011;38162;45.926;13.608;2022-12-28T02:41:27;1.77;;;0.90;;
52188;SDS011;38162;45.926;13.608;2022-12-28T02:43:55;4.97;;;1.00;;
52188;SDS011;38162;45.926;13.608;2022-12-28T02:46:25;2.47;;;0.90;;
52188;SDS011;38162;45.926;13.608;2022-12-28T02:49:22;1.63;;;0.80;;
52188;SDS011;38162;45.926;13.608;2022-12-28T03:24:08;2.00;;;0.80;;
52188;SDS011;38162;45.926;13.608;2022-12-28T03:31:18;1.57;;;0.90;;
52188;SDS011;38162;45.926;13.608;2022-12-28T03:40:32;1.70;;;1.10;;
52188;SDS011;38162;45.926;13.608;2022-12-28T03:43:14;3.10;;;1.10;;
52188;SDS011;38162;45.926;13.608;2022-12-28T03:48:41;2.40;;;1.00;;
52188;SDS011;38162;45.926;13.608;2022-12-28T03:51:08;1.57;;;0.97;;
52188;SDS011;38162;45.926;13.608;2022-12-28T03:53:36;1.33;;;0.93;;
52188;SDS011;38162;45.926;13.608;2022-12-28T03:56:06;3.97;;;1.30;;
52188;SDS011;38162;45.926;13.608;2022-12-28T03:58:36;2.10;;;1.20;;
52188;SDS011;38162;45.926;13.608;2022-12-28T04:01:02;1.63;;;0.80;;
52188;SDS011;38162;45.926;13.608;2022-12-28T04:03:28;5.63;;;1.00;;
52188;SDS011;38162;45.926;13.608;2022-12-28T04:05:54;1.33;;;0.97;;
52188;SDS011;38162;45.926;13.608;2022-12-28T04:08:20;6.70;;;1.70;;
52188;SDS011;38162;45.926;13.608;2022-12-28T04:10:46;2.63;;;1.50;;
52188;SDS011;38162;45.926;13.608;2022-12-28T04:13:12;1.53;;;1.10;;
52188;SDS011;38162;45.926;13.608;2022-12-28T04:15:37;1.37;;;1.00;;
52188;SDS011;38162;45.926;13.608;2022-12-28T04:18:04;2.50;;;1.30;;
52188;SDS011;38162;45.926;13.608;2022-12-28T04:20:30;1.90;;;1.10;;
52188;SDS011;38162;45.926;13.608;2022-12-28T04:22:56;4.17;;;1.20;;
52188;SDS011;38162;45.926;13.608;2022-12-28T04:25:22;2.63;;;1.40;;
52188;SDS011;38162;45.926;13.608;2022-12-28T04:27:48;2.27;;;1.40;;
52188;SDS011;38162;45.926;13.608;2022-12-28T04:30:14;3.20;;;1.50;;
52188;SDS011;38162;45.926;13.608;2022-12-28T04:32:40;2.70;;;1.50;;
52188;SDS011;38162;45.926;13.608;2022-12-28T04:35:05;2.00;;;1.40;;
52188;SDS011;38162;45.926;13.608;2022-12-28T04:37:34;2.47;;;1.30;;
52188;SDS011;38162;45.926;13.608;2022-12-28T04:40:01;2.60;;;1.27;;
52188;SDS011;38162;45.926;13.608;2022-12-28T04:42:27;4.90;;;1.60;;
52188;SDS011;38162;45.926;13.608;2022-12-28T04:44:53;3.03;;;1.33;;
52188;SDS011;38162;45.926;13.608;2022-12-28T04:47:19;1.73;;;1.10;;
52188;SDS011;38162;45.926;13.608;2022-12-28T04:49:44;2.60;;;1.20;;
52188;SDS011;38162;45.926;13.608;2022-12-28T04:52:11;3.30;;;1.47;;
52188;SDS011;38162;45.926;13.608;2022-12-28T04:54:37;1.83;;;1.20;;
52188;SDS011;38162;45.926;13.608;2022-12-28T04:57:03;2.80;;;1.20;;
52188;SDS011;38162;45.926;13.608;2022-12-28T05:18:00;2.50;;;1.50;;
52188;SDS011;38162;45.926;13.608;2022-12-28T05:30:15;2.03;;;1.20;;
52188;SDS011;38162;45.926;13.608;2022-12-28T05:32:41;2.37;;;1.23;;
52188;SDS011;38162;45.926;13.608;2022-12-28T05:35:07;1.83;;;1.23;;
52188;SDS011;38162;45.926;13.608;2022-12-28T05:37:34;2.23;;;1.10;;
52188;SDS011;38162;45.926;13.608;2022-12-28T05:40:00;2.47;;;1.10;;
52188;SDS011;38162;45.926;13.608;2022-12-28T05:42:26;2.00;;;1.30;;
52188;SDS011;38162;45.926;13.608;2022-12-28T05:44:52;2.13;;;1.30;;
52188;SDS011;38162;45.926;13.608;2022-12-28T05:47:18;3.23;;;1.03;;
52188;SDS011;38162;45.926;13.608;2022-12-28T05:49:44;4.00;;;1.37;;
52188;SDS011;38162;45.926;13.608;2022-12-28T05:52:11;2.67;;;1.47;;
52188;SDS011;38162;45.926;13.608;2022-12-28T05:54:37;2.07;;;1.37;;
52188;SDS011;38162;45.926;13.608;2022-12-28T05:57:03;3.10;;;1.60;;
52188;SDS011;38162;45.926;13.608;2022-12-28T05:59:29;6.17;;;1.77;;
52188;SDS011;38162;45.926;13.608;2022-12-28T06:01:55;2.97;;;1.90;;
52188;SDS011;38162;45.926;13.608;2022-12-28T06:04:21;3.53;;;2.13;;
52188;SDS011;38162;45.926;13.608;2022-12-28T06:06:48;3.47;;;2.10;;
52188;SDS011;38162;45.926;13.608;2022-12-28T06:09:14;2.80;;;2.00;;
52188;SDS011;38162;45.926;13.608;2022-12-28T06:11:41;2.83;;;1.77;;
52188;SDS011;38162;45.926;13.608;2022-12-28T06:14:07;3.10;;;1.63;;
52188;SDS011;38162;45.926;13.608;2022-12-28T06:16:34;2.77;;;1.40;;
52188;SDS011;38162;45.926;13.608;2022-12-28T06:19:07;5.63;;;2.00;;
52188;SDS011;38162;45.926;13.608;2022-12-28T06:21:34;3.53;;;2.13;;
52188;SDS011;38162;45.926;13.608;2022-12-28T06:24:01;4.70;;;2.43;;
52188;SDS011;38162;45.926;13.608;2022-12-28T06:26:29;2.90;;;1.90;;
52188;SDS011;38162;45.926;13.608;2022-12-28T06:28:55;5.20;;;1.87;;
52188;SDS011;38162;45.926;13.608;2022-12-28T06:31:22;4.17;;;1.90;;
52188;SDS011;38162;45.926;13.608;2022-12-28T06:33:51;6.30;;;2.20;;
52188;SDS011;38162;45.926;13.608;2022-12-28T06:36:54;2.60;;;1.90;;
52188;SDS011;38162;45.926;13.608;2022-12-28T06:39:13;2.35;;;1.65;;
52188;SDS011;38162;45.926;13.608;2022-12-28T06:41:40;4.73;;;1.80;;
52188;SDS011;38162;45.926;13.608;2022-12-28T06:44:06;3.03;;;1.80;;
52188;SDS011;38162;45.926;13.608;2022-12-28T06:46:33;2.33;;;1.47;;
52188;SDS011;38162;45.926;13.608;2022-12-28T06:48:59;4.50;;;1.70;;
52188;SDS011;38162;45.926;13.608;2022-12-28T06:51:35;2.27;;;1.40;;
52188;SDS011;38162;45.926;13.608;2022-12-28T06:57:43;2.60;;;1.60;;
52188;SDS011;38162;45.926;13.608;2022-12-28T07:00:49;4.28;;;1.60;;
52188;SDS011;38162;45.926;13.608;2022-12-28T07:21:50;3.37;;;2.20;;
52188;SDS011;38162;45.926;13.608;2022-12-28T07:24:16;5.63;;;3.37;;
52188;SDS011;38162;45.926;13.608;2022-12-28T07:26:43;2.93;;;2.43;;
52188;SDS011;38162;45.926;13.608;2022-12-28T07:29:09;5.50;;;2.90;;
52188;SDS011;38162;45.926;13.608;2022-12-28T07:31:36;4.73;;;2.90;;
52188;SDS011;38162;45.926;13.608;2022-12-28T07:34:03;5.20;;;2.10;;
52188;SDS011;38162;45.926;13.608;2022-12-28T07:36:29;3.77;;;2.43;;
52188;SDS011;38162;45.926;13.608;2022-12-28T07:38:57;5.77;;;2.53;;
52188;SDS011;38162;45.926;13.608;2022-12-28T07:41:28;3.53;;;1.80;;
52188;SDS011;38162;45.926;13.608;2022-12-28T07:43:54;3.60;;;1.93;;
52188;SDS011;38162;45.926;13.608;2022-12-28T07:46:21;3.13;;;1.73;;
52188;SDS011;38162;45.926;13.608;2022-12-28T07:48:48;3.97;;;1.73;;
52188;SDS011;38162;45.926;13.608;2022-12-28T07:51:16;3.67;;;2.40;;
52188;SDS011;38162;45.926;13.608;2022-12-28T07:53:43;3.80;;;1.90;;
52188;SDS011;38162;45.926;13.608;2022-12-28T07:56:09;3.17;;;1.97;;
52188;SDS011;38162;45.926;13.608;2022-12-28T07:58:35;3.37;;;1.93;;
52188;SDS011;38162;45.926;13.608;2022-12-28T08:01:04;4.40;;;2.73;;
52188;SDS011;38162;45.926;13.608;2022-12-28T08:03:30;2.70;;;1.87;;
52188;SDS011;38162;45.926;13.608;2022-12-28T08:06:10;2.33;;;1.73;;
52188;SDS011;38162;45.926;13.608;2022-12-28T08:08:36;4.70;;;1.90;;
52188;SDS011;38162;45.926;13.608;2022-12-28T08:11:10;4.30;;;2.53;;
52188;SDS011;38162;45.926;13.608;2022-12-28T08:13:37;5.43;;;2.20;;
52188;SDS011;38162;45.926;13.608;2022-12-28T08:16:04;4.07;;;2.33;;
52188;SDS011;38162;45.926;13.608;2022-12-28T08:18:30;6.37;;;2.63;;
52188;SDS011;38162;45.926;13.608;2022-12-28T08:21:03;6.07;;;2.30;;
52188;SDS011;38162;45.926;13.608;2022-12-28T08:23:30;3.30;;;2.27;;
52188;SDS011;38162;45.926;13.608;2022-12-28T08:26:03;5.47;;;2.40;;
52188;SDS011;38162;45.926;13.608;2022-12-28T08:28:29;7.27;;;2.17;;
52188;SDS011;38162;45.926;13.608;2022-12-28T08:30:55;3.87;;;2.23;;
52188;SDS011;38162;45.926;13.608;2022-12-28T08:33:21;3.60;;;2.20;;
52188;SDS011;38162;45.926;13.608;2022-12-28T08:35:47;4.20;;;2.10;;
52188;SDS011;38162;45.926;13.608;2022-12-28T08:38:14;4.63;;;1.90;;
52188;SDS011;38162;45.926;13.608;2022-12-28T09:02:32;3.28;;;1.55;;
52188;SDS011;38162;45.926;13.608;2022-12-28T09:05:17;2.47;;;1.70;;
52188;SDS011;38162;45.926;13.608;2022-12-28T09:07:58;6.72;;;1.50;;
52188;SDS011;38162;45.926;13.608;2022-12-28T09:10:24;2.83;;;1.63;;
52188;SDS011;38162;45.926;13.608;2022-12-28T09:12:50;3.87;;;1.87;;
52188;SDS011;38162;45.926;13.608;2022-12-28T09:15:17;2.50;;;1.60;;
52188;SDS011;38162;45.926;13.608;2022-12-28T09:17:43;4.30;;;2.13;;
52188;SDS011;38162;45.926;13.608;2022-12-28T09:20:09;2.53;;;1.60;;
52188;SDS011;38162;45.926;13.608;2022-12-28T09:22:35;3.30;;;1.70;;
52188;SDS011;38162;45.926;13.608;2022-12-28T09:25:02;4.67;;;1.87;;
52188;SDS011;38162;45.926;13.608;2022-12-28T09:27:28;2.90;;;1.93;;
52188;SDS011;38162;45.926;13.608;2022-12-28T09:29:54;2.97;;;1.80;;
52188;SDS011;38162;45.926;13.608;2022-12-28T09:32:20;2.07;;;1.40;;
52188;SDS011;38162;45.926;13.608;2022-12-28T09:34:46;3.57;;;2.10;;
52188;SDS011;38162;45.926;13.608;2022-12-28T09:37:12;4.73;;;2.00;;
52188;SDS011;38162;45.926;13.608;2022-12-28T09:39:38;3.30;;;1.90;;
52188;SDS011;38162;45.926;13.608;2022-12-28T09:52:09;2.77;;;1.60;;
52188;SDS011;38162;45.926;13.608;2022-12-28T09:54:41;4.53;;;1.70;;
52188;SDS011;38162;45.926;13.608;2022-12-28T09:57:10;5.80;;;1.73;;
52188;SDS011;38162;45.926;13.608;2022-12-28T09:59:38;3.50;;;2.00;;
52188;SDS011;38162;45.926;13.608;2022-12-28T10:02:08;2.57;;;2.03;;
52188;SDS011;38162;45.926;13.608;2022-12-28T10:04:38;6.13;;;2.67;;
52188;SDS011;38162;45.926;13.608;2022-12-28T10:07:05;3.47;;;2.67;;
52188;SDS011;38162;45.926;13.608;2022-12-28T10:09:34;3.40;;;2.27;;
52188;SDS011;38162;45.926;13.608;2022-12-28T10:12:00;4.23;;;2.50;;
52188;SDS011;38162;45.926;13.608;2022-12-28T10:14:34;3.43;;;1.93;;
52188;SDS011;38162;45.926;13.608;2022-12-28T10:17:00;3.40;;;2.10;;
52188;SDS011;38162;45.926;13.608;2022-12-28T10:19:27;2.63;;;1.97;;
52188;SDS011;38162;45.926;13.608;2022-12-28T10:22:15;3.30;;;2.20;;
52188;SDS011;38162;45.926;13.608;2022-12-28T10:24:43;3.33;;;2.20;;
52188;SDS011;38162;45.926;13.608;2022-12-28T10:27:23;5.53;;;2.23;;
52188;SDS011;38162;45.926;13.608;2022-12-28T10:55:28;2.78;;;1.70;;
52188;SDS011;38162;45.926;13.608;2022-12-28T10:57:55;3.37;;;1.90;;
52188;SDS011;38162;45.926;13.608;2022-12-28T11:00:22;3.20;;;1.60;;
52188;SDS011;38162;45.926;13.608;2022-12-28T11:02:48;3.33;;;1.90;;
52188;SDS011;38162;45.926;13.608;2022-12-28T11:05:18;6.27;;;1.73;;
52188;SDS011;38162;45.926;13.608;2022-12-28T11:07:45;4.23;;;1.80;;
52188;SDS011;38162;45.926;13.608;2022-12-28T11:10:24;4.63;;;2.00;;
52188;SDS011;38162;45.926;13.608;2022-12-28T11:12:52;3.67;;;2.30;;
52188;SDS011;38162;45.926;13.608;2022-12-28T11:15:20;3.42;;;2.33;;
52188;SDS011;38162;45.926;13.608;2022-12-28T11:17:54;6.03;;;2.47;;
52188;SDS011;38162;45.926;13.608;2022-12-28T11:20:29;4.80;;;2.17;;
52188;SDS011;38162;45.926;13.608;2022-12-28T11:22:56;3.03;;;1.92;;
52188;SDS011;38162;45.926;13.608;2022-12-28T11:25:30;3.73;;;2.10;;
52188;SDS011;38162;45.926;13.608;2022-12-28T11:27:57;4.05;;;2.10;;
52188;SDS011;38162;45.926;13.608;2022-12-28T11:30:24;4.10;;;1.90;;
52188;SDS011;38162;45.926;13.608;2022-12-28T11:32:59;4.43;;;2.42;;
52188;SDS011;38162;45.926;13.608;2022-12-28T11:35:29;3.13;;;1.85;;
52188;SDS011;38162;45.926;13.608;2022-12-28T11:37:57;5.10;;;2.10;;
52188;SDS011;38162;45.926;13.608;2022-12-28T11:45:55;5.22;;;2.45;;
52188;SDS011;38162;45.926;13.608;2022-12-28T11:51:03;5.80;;;2.40;;
52188;SDS011;38162;45.926;13.608;2022-12-28T11:56:08;5.45;;;2.35;;
52188;SDS011;38162;45.926;13.608;2022-12-28T12:01:04;4.00;;;2.88;;
52188;SDS011;38162;45.926;13.608;2022-12-28T12:11:46;7.35;;;3.00;;
52188;SDS011;38162;45.926;13.608;2022-12-28T12:42:57;4.72;;;1.90;;
52188;SDS011;38162;45.926;13.608;2022-12-28T12:45:42;4.05;;;1.80;;
52188;SDS011;38162;45.926;13.608;2022-12-28T12:48:21;7.43;;;1.73;;
52188;SDS011;38162;45.926;13.608;2022-12-28T13:02:24;7.13;;;2.22;;
52188;SDS011;38162;45.926;13.608;2022-12-28T13:04:30;6.55;;;2.03;;
52188;SDS011;38162;45.926;13.608;2022-12-28T13:07:02;6.57;;;2.13;;
52188;SDS011;38162;45.926;13.608;2022-12-28T13:09:31;5.82;;;1.77;;
52188;SDS011;38162;45.926;13.608;2022-12-28T13:11:58;3.05;;;1.98;;
52188;SDS011;38162;45.926;13.608;2022-12-28T13:14:24;5.82;;;1.90;;
52188;SDS011;38162;45.926;13.608;2022-12-28T13:16:52;4.13;;;1.65;;
52188;SDS011;38162;45.926;13.608;2022-12-28T13:19:20;5.43;;;1.70;;
52188;SDS011;38162;45.926;13.608;2022-12-28T13:21:47;4.78;;;2.30;;
52188;SDS011;38162;45.926;13.608;2022-12-28T13:26:45;3.58;;;1.83;;
52188;SDS011;38162;45.926;13.608;2022-12-28T13:29:12;3.20;;;2.10;;
52188;SDS011;38162;45.926;13.608;2022-12-28T13:31:40;9.45;;;1.83;;
52188;SDS011;38162;45.926;13.608;2022-12-28T13:34:31;3.20;;;2.08;;
52188;SDS011;38162;45.926;13.608;2022-12-28T13:37:00;4.20;;;2.10;;
52188;SDS011;38162;45.926;13.608;2022-12-28T13:39:29;5.63;;;2.42;;
52188;SDS011;38162;45.926;13.608;2022-12-28T13:41:59;3.40;;;2.42;;
52188;SDS011;38162;45.926;13.608;2022-12-28T13:46:59;3.08;;;2.13;;
52188;SDS011;38162;45.926;13.608;2022-12-28T13:49:26;6.80;;;2.67;;
52188;SDS011;38162;45.926;13.608;2022-12-28T13:51:53;6.47;;;2.80;;
52188;SDS011;38162;45.926;13.608;2022-12-28T13:54:20;7.70;;;2.70;;
52188;SDS011;38162;45.926;13.608;2022-12-28T13:56:49;4.20;;;2.25;;
52188;SDS011;38162;45.926;13.608;2022-12-28T14:20:21;7.95;;;5.00;;
52188;SDS011;38162;45.926;13.608;2022-12-28T14:26:02;12.73;;;8.52;;
52188;SDS011;38162;45.926;13.608;2022-12-28T14:30:55;9.02;;;5.47;;
52188;SDS011;38162;45.926;13.608;2022-12-28T14:33:22;12.35;;;7.43;;
52188;SDS011;38162;45.926;13.608;2022-12-28T14:35:55;29.08;;;17.75;;
52188;SDS011;38162;45.926;13.608;2022-12-28T14:38:24;22.73;;;15.68;;
52188;SDS011;38162;45.926;13.608;2022-12-28T14:40:53;26.45;;;14.65;;
52188;SDS011;38162;45.926;13.608;2022-12-28T14:43:23;26.35;;;16.02;;
52188;SDS011;38162;45.926;13.608;2022-12-28T14:45:50;45.20;;;25.50;;
52188;SDS011;38162;45.926;13.608;2022-12-28T14:50:59;57.42;;;31.63;;
52188;SDS011;38162;45.926;13.608;2022-12-28T14:53:25;58.80;;;32.10;;
52188;SDS011;38162;45.926;13.608;2022-12-28T14:58:25;60.50;;;34.20;;
52188;SDS011;38162;45.926;13.608;2022-12-28T15:00:53;61.42;;;34.88;;
52188;SDS011;38162;45.926;13.608;2022-12-28T15:03:23;63.97;;;38.50;;
52188;SDS011;38162;45.926;13.608;2022-12-28T15:05:55;65.20;;;38.85;;
52188;SDS011;38162;45.926;13.608;2022-12-28T15:08:22;78.80;;;52.03;;
52188;SDS011;38162;45.926;13.608;2022-12-28T15:10:50;81.60;;;46.03;;
52188;SDS011;38162;45.926;13.608;2022-12-28T15:13:17;71.88;;;41.40;;
52188;SDS011;38162;45.926;13.608;2022-12-28T15:15:43;77.22;;;41.60;;
52188;SDS011;38162;45.926;13.608;2022-12-28T15:18:10;79.95;;;44.13;;
52188;SDS011;38162;45.926;13.608;2022-12-28T15:20:36;72.22;;;39.58;;
52188;SDS011;38162;45.926;13.608;2022-12-28T15:23:03;68.13;;;39.40;;
52188;SDS011;38162;45.926;13.608;2022-12-28T15:25:31;69.32;;;40.55;;
52188;SDS011;38162;45.926;13.608;2022-12-28T15:27:57;73.47;;;41.90;;
52188;SDS011;38162;45.926;13.608;2022-12-28T15:30:23;76.47;;;42.33;;
52188;SDS011;38162;45.926;13.608;2022-12-28T15:32:50;75.13;;;41.88;;
52188;SDS011;38162;45.926;13.608;2022-12-28T15:35:16;74.97;;;41.72;;
52188;SDS011;38162;45.926;13.608;2022-12-28T15:37:43;73.03;;;41.35;;
52188;SDS011;38162;45.926;13.608;2022-12-28T15:40:09;75.50;;;43.33;;
52188;SDS011;38162;45.926;13.608;2022-12-28T15:42:35;68.93;;;39.75;;
52188;SDS011;38162;45.926;13.608;2022-12-28T16:12:30;70.65;;;40.10;;
52188;SDS011;38162;45.926;13.608;2022-12-28T16:14:56;76.18;;;41.75;;
52188;SDS011;38162;45.926;13.608;2022-12-28T16:17:22;73.13;;;41.38;;
52188;SDS011;38162;45.926;13.608;2022-12-28T16:19:48;73.38;;;42.70;;
52188;SDS011;38162;45.926;13.608;2022-12-28T16:22:14;74.13;;;42.17;;
52188;SDS011;38162;45.926;13.608;2022-12-28T16:24:39;74.90;;;42.60;;
52188;SDS011;38162;45.926;13.608;2022-12-28T16:27:05;69.88;;;41.15;;
52188;SDS011;38162;45.926;13.608;2022-12-28T16:29:32;73.32;;;41.17;;
52188;SDS011;38162;45.926;13.608;2022-12-28T16:31:58;72.15;;;43.08;;
52188;SDS011;38162;45.926;13.608;2022-12-28T16:34:25;76.95;;;41.55;;
52188;SDS011;38162;45.926;13.608;2022-12-28T16:36:52;73.13;;;40.05;;
52188;SDS011;38162;45.926;13.608;2022-12-28T16:39:21;72.25;;;40.70;;
52188;SDS011;38162;45.926;13.608;2022-12-28T16:41:47;70.75;;;41.95;;
52188;SDS011;38162;45.926;13.608;2022-12-28T16:44:14;68.35;;;40.47;;
52188;SDS011;38162;45.926;13.608;2022-12-28T16:46:44;69.20;;;39.50;;
52188;SDS011;38162;45.926;13.608;2022-12-28T16:49:11;67.47;;;40.83;;
52188;SDS011;38162;45.926;13.608;2022-12-28T16:51:37;72.45;;;43.20;;
52188;SDS011;38162;45.926;13.608;2022-12-28T16:54:04;76.88;;;41.55;;
52188;SDS011;38162;45.926;13.608;2022-12-28T16:56:31;68.28;;;41.47;;
52188;SDS011;38162;45.926;13.608;2022-12-28T16:58:57;67.57;;;38.58;;
52188;SDS011;38162;45.926;13.608;2022-12-28T17:01:23;67.90;;;41.25;;
52188;SDS011;38162;45.926;13.608;2022-12-28T17:03:49;66.82;;;38.13;;
52188;SDS011;38162;45.926;13.608;2022-12-28T17:06:15;67.72;;;38.80;;
52188;SDS011;38162;45.926;13.608;2022-12-28T17:08:42;64.75;;;39.22;;
52188;SDS011;38162;45.926;13.608;2022-12-28T17:11:08;67.60;;;41.30;;
52188;SDS011;38162;45.926;13.608;2022-12-28T17:13:35;74.45;;;40.80;;
52188;SDS011;38162;45.926;13.608;2022-12-28T17:16:01;69.80;;;41.78;;
52188;SDS011;38162;45.926;13.608;2022-12-28T17:18:27;75.40;;;42.33;;
52188;SDS011;38162;45.926;13.608;2022-12-28T17:20:54;69.82;;;42.38;;
52188;SDS011;38162;45.926;13.608;2022-12-28T17:23:21;73.15;;;44.65;;
52188;SDS011;38162;45.926;13.608;2022-12-28T17:25:48;76.00;;;44.53;;
52188;SDS011;38162;45.926;13.608;2022-12-28T17:28:18;74.43;;;44.75;;
52188;SDS011;38162;45.926;13.608;2022-12-28T17:40:58;60.00;;;35.28;;
52188;SDS011;38162;45.926;13.608;2022-12-28T17:44:04;57.45;;;35.75;;
52188;SDS011;38162;45.926;13.608;2022-12-28T17:47:05;65.80;;;39.05;;
52188;SDS011;38162;45.926;13.608;2022-12-28T17:56:29;71.57;;;40.88;;
52188;SDS011;38162;45.926;13.608;2022-12-28T17:58:56;64.22;;;40.97;;
52188;SDS011;38162;45.926;13.608;2022-12-28T18:01:24;69.05;;;42.55;;
52188;SDS011;38162;45.926;13.608;2022-12-28T18:03:50;73.65;;;43.15;;
52188;SDS011;38162;45.926;13.608;2022-12-28T18:06:16;65.32;;;42.63;;
52188;SDS011;38162;45.926;13.608;2022-12-28T18:08:42;61.22;;;39.65;;
52188;SDS011;38162;45.926;13.608;2022-12-28T18:11:08;62.55;;;39.70;;
52188;SDS011;38162;45.926;13.608;2022-12-28T18:13:41;62.05;;;38.35;;
52188;SDS011;38162;45.926;13.608;2022-12-28T18:18:35;61.58;;;36.38;;
52188;SDS011;38162;45.926;13.608;2022-12-28T18:21:02;59.10;;;36.47;;
52188;SDS011;38162;45.926;13.608;2022-12-28T18:23:30;55.05;;;34.63;;
52188;SDS011;38162;45.926;13.608;2022-12-28T18:26:15;61.08;;;35.42;;
52188;SDS011;38162;45.926;13.608;2022-12-28T18:28:46;62.30;;;36.17;;
52188;SDS011;38162;45.926;13.608;2022-12-28T18:31:12;63.25;;;35.95;;
52188;SDS011;38162;45.926;13.608;2022-12-28T18:33:37;64.03;;;36.55;;
52188;SDS011;38162;45.926;13.608;2022-12-28T18:36:05;63.10;;;36.70;;
52188;SDS011;38162;45.926;13.608;2022-12-28T18:38:32;53.38;;;36.72;;
52188;SDS011;38162;45.926;13.608;2022-12-28T18:40:59;66.28;;;38.28;;
52188;SDS011;38162;45.926;13.608;2022-12-28T18:43:26;60.53;;;36.70;;
52188;SDS011;38162;45.926;13.608;2022-12-28T18:45:58;56.90;;;36.72;;
52188;SDS011;38162;45.926;13.608;2022-12-28T18:48:25;59.20;;;38.13;;
52188;SDS011;38162;45.926;13.608;2022-12-28T18:50:59;65.85;;;41.53;;
52188;SDS011;38162;45.926;13.608;2022-12-28T18:53:27;66.07;;;40.60;;
52188;SDS011;38162;45.926;13.608;2022-12-28T18:55:58;59.75;;;38.25;;
52188;SDS011;38162;45.926;13.608;2022-12-28T18:58:29;57.70;;;38.80;;
52188;SDS011;38162;45.926;13.608;2022-12-28T19:01:12;130.57;;;82.78;;
52188;SDS011;38162;45.926;13.608;2022-12-28T19:03:46;82.82;;;52.50;;
52188;SDS011;38162;45.926;13.608;2022-12-28T19:06:16;141.80;;;89.13;;
52188;SDS011;38162;45.926;13.608;2022-12-28T19:08:42;119.60;;;78.85;;
52188;SDS011;38162;45.926;13.608;2022-12-28T19:11:09;89.20;;;57.05;;
52188;SDS011;38162;45.926;13.608;2022-12-28T19:13:38;78.65;;;50.75;;
52188;SDS011;38162;45.926;13.608;2022-12-28T19:22:47;66.88;;;41.20;;
52188;SDS011;38162;45.926;13.608;2022-12-28T19:25:32;72.07;;;42.97;;
52188;SDS011;38162;45.926;13.608;2022-12-28T19:28:01;67.90;;;42.08;;
52188;SDS011;38162;45.926;13.608;2022-12-28T19:30:48;69.57;;;42.95;;
52188;SDS011;38162;45.926;13.608;2022-12-28T19:33:23;64.22;;;41.95;;
52188;SDS011;38162;45.926;13.608;2022-12-28T19:39:15;69.88;;;45.85;;
52188;SDS011;38162;45.926;13.608;2022-12-28T19:44:58;69.03;;;44.78;;
52188;SDS011;38162;45.926;13.608;2022-12-28T19:47:24;72.28;;;44.45;;
52188;SDS011;38162;45.926;13.608;2022-12-28T19:49:50;69.88;;;42.13;;
52188;SDS011;38162;45.926;13.608;2022-12-28T19:52:16;69.97;;;44.05;;
52188;SDS011;38162;45.926;13.608;2022-12-28T19:54:42;78.53;;;51.60;;
52188;SDS011;38162;45.926;13.608;2022-12-28T19:57:08;104.28;;;72.40;;
52188;SDS011;38162;45.926;13.608;2022-12-28T19:59:33;99.05;;;69.18;;
52188;SDS011;38162;45.926;13.608;2022-12-28T20:01:59;95.18;;;67.22;;
52188;SDS011;38162;45.926;13.608;2022-12-28T20:04:25;102.63;;;70.38;;
52188;SDS011;38162;45.926;13.608;2022-12-28T20:06:51;74.97;;;49.42;;
52188;SDS011;38162;45.926;13.608;2022-12-28T20:09:17;70.03;;;44.92;;
52188;SDS011;38162;45.926;13.608;2022-12-28T20:11:43;77.18;;;47.60;;
52188;SDS011;38162;45.926;13.608;2022-12-28T20:14:10;73.93;;;45.67;;
52188;SDS011;38162;45.926;13.608;2022-12-28T20:16:39;69.57;;;45.47;;
52188;SDS011;38162;45.926;13.608;2022-12-28T20:19:07;69.68;;;46.63;;
52188;SDS011;38162;45.926;13.608;2022-12-28T20:21:35;77.40;;;45.72;;
52188;SDS011;38162;45.926;13.608;2022-12-28T20:24:02;71.50;;;44.15;;